Time;durP1;ratioP1;P1;durP2;ratioP2;P2;SDS_P1;SDS_P2;PMS_P1;PMS_P2;Temp;Humidity;BMP_temperature;BMP_pressure;BME280_temperature;BME280_humidity;BME280_pressure;Samples;Min_cycle;Max_cycle;Signal;HPM_P1;HPM_P2
2020/12/08 00:00:39;;;;;;;1.30;0.40;;;14.60;99.90;;;;;;4320499;33;20154;-92
2020/12/08 00:03:07;;;;;;;2.30;0.70;;;14.80;99.90;;;;;;4328608;33;20203;-92
2020/12/08 00:05:36;;;;;;;2.60;2.10;;;14.90;99.90;;;;;;4319506;33;21494;-92
2020/12/08 00:08:06;;;;;;;1.98;1.87;;;14.90;99.90;;;;;;4325574;33;20507;-93
2020/12/08 00:10:34;;;;;;;3.17;1.02;;;15.00;99.90;;;;;;4323403;33;20119;-91
2020/12/08 00:13:02;;;;;;;3.97;0.50;;;15.00;99.90;;;;;;4327336;33;20101;-93
2020/12/08 00:15:30;;;;;;;1.98;0.60;;;15.00;99.90;;;;;;4320264;33;20086;-93
2020/12/08 00:17:59;;;;;;;1.62;1.55;;;15.00;99.90;;;;;;4317186;33;20150;-94
2020/12/08 00:20:27;;;;;;;3.70;1.20;;;15.00;99.90;;;;;;4330932;33;20785;-92
2020/12/08 00:22:55;;;;;;;3.50;0.95;;;15.10;99.90;;;;;;4317311;33;20082;-90
2020/12/08 00:25:24;;;;;;;2.78;1.00;;;15.10;99.90;;;;;;4315593;33;20065;-93
2020/12/08 00:27:51;;;;;;;4.70;1.92;;;15.10;99.90;;;;;;4328581;33;20470;-93
2020/12/08 00:30:22;;;;;;;1.40;1.40;;;15.10;99.90;;;;;;4327534;33;20115;-92
2020/12/08 00:32:51;;;;;;;3.25;1.70;;;15.20;99.90;;;;;;4326744;33;20104;-91
2020/12/08 00:35:19;;;;;;;2.20;2.00;;;15.20;99.90;;;;;;4314895;33;20142;-93
2020/12/08 00:37:47;;;;;;;1.98;1.87;;;15.30;99.90;;;;;;4316470;33;20099;-92
2020/12/08 00:40:16;;;;;;;4.87;2.95;;;15.40;99.90;;;;;;4305878;33;20119;-93
2020/12/08 00:42:44;;;;;;;2.15;2.05;;;15.50;99.90;;;;;;4327437;33;20064;-92
2020/12/08 00:45:13;;;;;;;5.62;2.50;;;15.60;99.90;;;;;;4315656;33;20063;-91
2020/12/08 00:47:46;;;;;;;3.30;3.08;;;15.70;99.90;;;;;;4313325;33;20065;-92
2020/12/08 00:50:15;;;;;;;7.20;2.60;;;15.80;99.90;;;;;;4336499;33;20066;-93
2020/12/08 00:52:44;;;;;;;3.20;2.70;;;15.80;99.90;;;;;;4326644;33;20208;-93
2020/12/08 00:55:12;;;;;;;3.37;0.93;;;15.80;99.90;;;;;;4336842;33;20051;-93
2020/12/08 00:57:44;;;;;;;0.50;0.50;;;15.80;99.90;;;;;;4316097;33;20438;-94
2020/12/08 01:00:15;;;;;;;4.80;0.52;;;15.80;99.90;;;;;;4316201;33;20107;-92
2020/12/08 01:02:43;;;;;;;0.62;0.47;;;15.70;99.90;;;;;;4329121;33;20108;-92
2020/12/08 01:05:12;;;;;;;3.10;0.47;;;15.70;99.90;;;;;;4314790;33;20086;-95
2020/12/08 01:07:40;;;;;;;2.22;0.40;;;15.70;99.90;;;;;;4331518;33;20056;-94
2020/12/08 01:10:09;;;;;;;2.83;0.60;;;15.80;99.90;;;;;;4327734;33;20090;-93
2020/12/08 01:12:38;;;;;;;3.35;0.40;;;15.80;99.90;;;;;;4328561;33;20430;-92
2020/12/08 01:15:08;;;;;;;4.35;0.88;;;15.80;99.90;;;;;;4327256;33;20090;-92
2020/12/08 01:17:36;;;;;;;2.67;0.70;;;15.80;99.90;;;;;;4316485;33;20099;-93
2020/12/08 01:20:06;;;;;;;2.37;2.20;;;15.80;99.90;;;;;;4331171;33;20247;-94
2020/12/08 01:22:34;;;;;;;3.60;2.33;;;15.80;99.90;;;;;;4342702;32;20462;-95
2020/12/08 01:25:03;;;;;;;3.25;1.77;;;15.80;99.90;;;;;;4315106;33;20120;-93
2020/12/08 01:27:34;;;;;;;3.62;1.90;;;15.80;99.90;;;;;;4318703;33;20490;-94
2020/12/08 01:30:04;;;;;;;4.50;2.03;;;15.70;99.90;;;;;;4318640;33;20075;-91
2020/12/08 01:32:33;;;;;;;2.00;1.80;;;15.70;99.90;;;;;;4317920;33;20079;-94
2020/12/08 01:35:01;;;;;;;3.42;2.10;;;15.70;99.90;;;;;;4311246;33;20168;-92
2020/12/08 01:37:30;;;;;;;2.15;1.52;;;15.70;99.90;;;;;;4314465;33;20112;-92
2020/12/08 01:39:58;;;;;;;1.40;1.30;;;15.70;99.90;;;;;;4319892;33;20059;-94
2020/12/08 01:42:29;;;;;;;2.58;2.17;;;15.60;99.90;;;;;;4334379;33;20073;-94
2020/12/08 01:44:57;;;;;;;2.00;1.05;;;15.50;99.90;;;;;;4329267;33;20110;-93
2020/12/08 01:47:26;;;;;;;1.45;0.60;;;15.60;99.90;;;;;;4312606;33;20115;-94
2020/12/08 01:49:55;;;;;;;0.65;0.30;;;15.50;99.90;;;;;;4320716;33;20071;-95
2020/12/08 01:52:23;;;;;;;1.10;0.40;;;15.50;99.90;;;;;;4323410;33;20067;-93
2020/12/08 01:54:54;;;;;;;4.40;0.60;;;15.60;99.90;;;;;;4331236;33;20124;-93
2020/12/08 01:57:23;;;;;;;2.05;0.70;;;15.50;99.90;;;;;;4311450;33;20144;-96
2020/12/08 01:59:52;;;;;;;2.45;0.82;;;15.50;99.90;;;;;;4315447;33;20112;-94
2020/12/08 02:02:23;;;;;;;0.98;0.45;;;15.50;99.90;;;;;;4326519;33;20115;-94
2020/12/08 02:04:53;;;;;;;1.52;1.17;;;;;;;;;;4339179;33;20114;-93
2020/12/08 02:07:22;;;;;;;3.67;1.80;;;;;;;;;;4320310;33;20374;-92
2020/12/08 02:09:50;;;;;;;2.78;2.30;;;15.20;99.90;;;;;;4329334;33;20056;-94
2020/12/08 02:12:19;;;;;;;3.45;2.70;;;15.20;99.90;;;;;;4317036;33;20168;-93
2020/12/08 02:14:47;;;;;;;2.42;2.33;;;15.20;99.90;;;;;;4330445;33;20068;-92
2020/12/08 02:17:16;;;;;;;3.65;1.92;;;;;;;;;;4327875;33;20056;-94
2020/12/08 02:19:47;;;;;;;2.42;2.22;;;;;;;;;;4310378;33;20587;-94
2020/12/08 02:22:17;;;;;;;3.70;2.10;;;15.10;99.90;;;;;;4327619;33;20056;-93
2020/12/08 02:24:46;;;;;;;2.40;2.20;;;;;;;;;;4323726;33;20099;-94
2020/12/08 02:27:14;;;;;;;3.10;2.10;;;;;;;;;;4341372;33;20064;-94
2020/12/08 02:29:43;;;;;;;2.22;2.10;;;;;;;;;;4355498;33;20110;-94
2020/12/08 02:32:11;;;;;;;2.22;1.95;;;;;;;;;;4346503;33;20080;-95
2020/12/08 02:34:42;;;;;;;2.35;2.20;;;;;;;;;;4346808;33;20068;-94
2020/12/08 02:37:11;;;;;;;4.62;2.30;;;;;;;;;;4341191;33;20044;-93
2020/12/08 02:39:40;;;;;;;2.55;2.35;;;;;;;;;;4351122;33;20059;-94
2020/12/08 02:42:09;;;;;;;1.90;1.80;;;;;;;;;;4344636;33;20076;-95
2020/12/08 02:44:36;;;;;;;5.78;0.85;;;14.70;99.90;;;;;;4347843;32;20050;-94
2020/12/08 02:47:05;;;;;;;4.45;2.40;;;14.70;99.90;;;;;;4345452;33;20115;-94
2020/12/08 02:49:33;;;;;;;7.05;2.10;;;14.60;99.90;;;;;;4347178;33;20103;-94
2020/12/08 02:52:02;;;;;;;3.90;2.10;;;14.70;99.90;;;;;;4330050;33;20057;-95
2020/12/08 02:54:31;;;;;;;2.12;1.90;;;14.80;99.90;;;;;;4341850;33;20104;-94
2020/12/08 02:57:05;;;;;;;4.50;1.85;;;14.80;99.90;;;;;;4345528;33;20121;-94
2020/12/08 02:59:36;;;;;;;2.28;1.90;;;14.80;99.90;;;;;;4329533;33;20055;-93
2020/12/08 03:02:04;;;;;;;1.70;1.70;;;14.70;99.90;;;;;;4354240;33;20055;-95
2020/12/08 03:04:32;;;;;;;1.58;1.30;;;14.60;99.90;;;;;;4340188;33;20060;-95
2020/12/08 03:07:02;;;;;;;2.05;1.95;;;14.60;99.90;;;;;;4315393;33;20081;-95
2020/12/08 03:09:30;;;;;;;3.70;2.67;;;14.60;99.90;;;;;;4317002;33;20719;-95
2020/12/08 03:11:59;;;;;;;2.30;2.17;;;14.60;99.90;;;;;;4338111;33;20095;-95
2020/12/08 03:14:28;;;;;;;2.35;2.20;;;14.60;99.90;;;;;;4347478;33;20057;-95
2020/12/08 03:16:57;;;;;;;3.58;3.00;;;14.60;99.90;;;;;;4348516;33;20052;-95
2020/12/08 03:19:28;;;;;;;2.10;2.00;;;14.60;99.90;;;;;;4333784;33;20449;-94
2020/12/08 03:21:56;;;;;;;5.65;2.08;;;14.60;99.90;;;;;;4340738;32;20040;-94
2020/12/08 03:24:25;;;;;;;3.53;2.20;;;14.60;99.90;;;;;;4349489;32;20078;-94
2020/12/08 03:26:54;;;;;;;4.62;2.25;;;14.50;99.90;;;;;;4342694;33;20071;-95
2020/12/08 03:29:25;;;;;;;4.12;1.67;;;;;;;;;;4337113;33;20067;-95
2020/12/08 03:31:53;;;;;;;1.30;1.00;;;14.20;99.90;;;;;;4359829;32;20036;-94
2020/12/08 03:34:22;;;;;;;1.75;1.27;;;14.20;99.90;;;;;;4368765;32;20036;-94
2020/12/08 03:36:50;;;;;;;3.75;1.65;;;14.20;99.90;;;;;;4370470;32;20072;-94
2020/12/08 03:39:19;;;;;;;10.82;1.20;;;14.20;99.90;;;;;;4370899;32;20036;-93
2020/12/08 03:41:48;;;;;;;1.65;1.30;;;14.20;99.90;;;;;;4352171;32;20051;-95
2020/12/08 03:44:16;;;;;;;2.97;1.48;;;14.20;99.90;;;;;;4352520;33;20075;-93
2020/12/08 03:46:44;;;;;;;1.90;1.80;;;14.20;99.90;;;;;;4366660;32;20059;-94
2020/12/08 03:49:13;;;;;;;1.95;1.20;;;14.20;99.90;;;;;;4363265;32;20109;-93
2020/12/08 03:51:47;;;;;;;1.95;0.85;;;14.00;99.90;;;;;;4359041;32;20047;-93
2020/12/08 03:54:16;;;;;;;1.10;1.02;;;13.90;99.90;;;;;;4375461;32;20088;-93
2020/12/08 03:56:45;;;;;;;1.15;0.62;;;13.70;99.90;;;;;;4354830;32;20091;-94
2020/12/08 03:59:18;;;;;;;11.23;0.93;;;13.60;99.90;;;;;;4359634;32;20039;-93
2020/12/08 04:01:48;;;;;;;2.95;0.75;;;13.60;99.90;;;;;;4350886;33;20092;-93
2020/12/08 04:04:18;;;;;;;1.55;0.80;;;13.50;99.90;;;;;;4355502;32;20052;-94
2020/12/08 04:06:48;;;;;;;4.62;0.85;;;13.40;99.90;;;;;;4356143;32;20077;-91
2020/12/08 04:09:16;;;;;;;3.05;0.45;;;13.40;99.90;;;;;;4333307;33;20071;-94
2020/12/08 04:11:45;;;;;;;2.53;0.65;;;13.20;99.90;;;;;;4355994;32;20082;-94
2020/12/08 04:14:14;;;;;;;3.58;0.70;;;13.20;99.90;;;;;;4345257;32;20074;-94
2020/12/08 04:16:44;;;;;;;1.92;0.50;;;13.30;99.90;;;;;;4329346;33;20103;-93
2020/12/08 04:19:16;;;;;;;8.73;0.88;;;13.40;99.90;;;;;;4354318;32;20098;-93
2020/12/08 04:21:45;;;;;;;0.62;0.50;;;13.40;99.90;;;;;;4346409;33;20100;-95
2020/12/08 04:24:14;;;;;;;1.80;0.80;;;13.50;99.90;;;;;;4348470;32;20496;-94
2020/12/08 04:26:45;;;;;;;2.28;0.98;;;13.50;99.90;;;;;;4352139;32;20055;-94
2020/12/08 04:29:15;;;;;;;3.67;0.90;;;13.50;99.90;;;;;;4333976;33;20064;-93
2020/12/08 04:31:44;;;;;;;4.53;0.82;;;13.60;99.90;;;;;;4343130;33;20052;-94
2020/12/08 04:34:11;;;;;;;0.43;0.43;;;13.60;99.90;;;;;;4336865;33;20072;-94
2020/12/08 04:36:40;;;;;;;1.30;0.73;;;13.60;99.90;;;;;;4336371;33;20123;-94
2020/12/08 04:39:08;;;;;;;1.95;0.82;;;13.50;99.90;;;;;;4352835;32;20450;-95
2020/12/08 04:41:36;;;;;;;3.87;0.70;;;13.50;99.90;;;;;;4358371;32;20064;-94
2020/12/08 04:44:05;;;;;;;2.92;0.70;;;13.60;99.90;;;;;;4334039;33;20094;-94
2020/12/08 04:46:34;;;;;;;0.75;0.50;;;13.50;99.90;;;;;;4345867;33;20052;-94
2020/12/08 04:49:02;;;;;;;1.20;0.60;;;13.60;99.90;;;;;;4358620;32;20504;-93
2020/12/08 04:51:31;;;;;;;5.37;1.15;;;13.70;99.90;;;;;;4333899;33;20071;-94
2020/12/08 04:53:59;;;;;;;4.70;1.05;;;13.80;99.90;;;;;;4341654;33;20060;-95
2020/12/08 04:56:27;;;;;;;0.95;0.65;;;13.80;99.90;;;;;;4346095;32;20084;-96
2020/12/08 04:58:57;;;;;;;4.90;0.70;;;13.80;99.90;;;;;;4344969;33;20068;-94
2020/12/08 05:01:26;;;;;;;4.25;1.05;;;13.80;99.90;;;;;;4343080;33;20787;-94
2020/12/08 05:04:01;;;;;;;4.28;0.95;;;13.80;99.90;;;;;;4332623;33;20064;-93
2020/12/08 05:06:31;;;;;;;7.03;2.78;;;13.90;99.90;;;;;;4342907;33;20155;-94
2020/12/08 05:09:08;;;;;;;6.60;2.40;;;13.90;99.90;;;;;;4357327;32;20416;-95
2020/12/08 05:11:37;;;;;;;3.60;2.50;;;14.00;99.90;;;;;;4354713;33;20068;-94
2020/12/08 05:14:06;;;;;;;5.12;2.40;;;14.00;99.90;;;;;;4355615;32;20508;-95
2020/12/08 05:16:34;;;;;;;2.80;2.45;;;14.00;99.90;;;;;;4337381;33;20090;-94
2020/12/08 05:19:10;;;;;;;2.72;1.73;;;14.00;99.90;;;;;;4333275;33;20103;-95
2020/12/08 05:21:49;;;;;;;1.90;1.75;;;13.90;99.90;;;;;;4333925;33;20458;-94
2020/12/08 05:24:27;;;;;;;2.50;1.90;;;13.80;99.90;;;;;;4332942;33;20375;-93
2020/12/08 05:27:00;;;;;;;6.10;2.08;;;13.80;99.90;;;;;;4333101;33;20079;-94
2020/12/08 05:29:30;;;;;;;3.72;1.17;;;13.70;99.90;;;;;;4337323;33;20103;-92
2020/12/08 05:32:29;;;;;;;2.72;0.90;;;13.60;99.90;;;;;;4350434;32;20056;-94
2020/12/08 05:34:58;;;;;;;3.22;0.88;;;13.50;99.90;;;;;;4336346;33;20083;-94
2020/12/08 05:37:25;;;;;;;3.28;0.88;;;13.40;99.90;;;;;;4344466;32;20681;-93
2020/12/08 05:39:53;;;;;;;3.75;0.70;;;13.50;99.90;;;;;;4343544;33;20140;-94
2020/12/08 05:42:22;;;;;;;2.42;0.68;;;13.50;99.90;;;;;;4350026;32;20109;-93
2020/12/08 05:44:51;;;;;;;4.12;0.60;;;13.60;99.90;;;;;;4345348;33;20155;-95
2020/12/08 05:47:21;;;;;;;1.17;0.70;;;13.60;99.90;;;;;;4346505;32;20432;-95
2020/12/08 05:50:00;;;;;;;3.20;0.80;;;13.60;99.90;;;;;;4334601;33;20079;-96
2020/12/08 05:52:30;;;;;;;2.08;0.68;;;13.60;99.90;;;;;;4348471;33;20060;-95
2020/12/08 05:55:07;;;;;;;1.10;1.00;;;13.60;99.90;;;;;;4346018;32;20075;-94
2020/12/08 05:57:35;;;;;;;2.65;0.95;;;13.60;99.90;;;;;;4335778;33;20068;-96
2020/12/08 06:00:06;;;;;;;6.07;1.10;;;13.50;99.90;;;;;;4331112;33;20506;-94
2020/12/08 06:02:39;;;;;;;1.95;1.52;;;13.50;99.90;;;;;;4345395;33;20080;-94
2020/12/08 06:05:07;;;;;;;1.30;0.55;;;13.50;99.90;;;;;;4333940;33;20102;-95
2020/12/08 06:07:36;;;;;;;3.15;0.70;;;13.50;99.90;;;;;;4349026;32;20495;-95
2020/12/08 06:10:05;;;;;;;2.47;0.80;;;13.50;99.90;;;;;;4345337;33;20056;-96
2020/12/08 06:12:33;;;;;;;2.20;0.65;;;13.40;99.90;;;;;;4354147;33;20052;-96
2020/12/08 06:15:01;;;;;;;3.00;0.70;;;13.30;99.90;;;;;;4344389;33;20056;-94
2020/12/08 06:17:29;;;;;;;2.37;0.60;;;13.20;99.90;;;;;;4344972;33;20131;-94
2020/12/08 06:20:05;;;;;;;1.20;0.75;;;13.10;99.90;;;;;;4344754;33;20072;-96
2020/12/08 06:22:33;;;;;;;4.28;0.50;;;13.20;99.90;;;;;;4333249;33;20056;-95
2020/12/08 06:25:01;;;;;;;8.02;0.98;;;13.10;99.90;;;;;;4345016;33;20086;-95
2020/12/08 06:27:29;;;;;;;5.97;1.33;;;13.10;99.90;;;;;;4331365;33;20064;-94
2020/12/08 06:29:58;;;;;;;5.25;0.82;;;13.10;99.90;;;;;;4334612;33;20462;-94
2020/12/08 06:32:27;;;;;;;0.55;0.50;;;13.10;99.90;;;;;;4343871;33;20060;-95
2020/12/08 06:35:03;;;;;;;2.10;0.80;;;13.20;99.90;;;;;;4341884;32;20094;-93
2020/12/08 06:37:31;;;;;;;1.02;0.55;;;13.20;99.90;;;;;;4341336;33;20093;-95
2020/12/08 06:40:09;;;;;;;2.55;0.82;;;13.20;99.90;;;;;;4336980;33;20107;-93
2020/12/08 06:42:36;;;;;;;4.05;0.80;;;13.10;99.90;;;;;;4337350;33;20115;-94
2020/12/08 06:45:07;;;;;;;1.58;0.57;;;12.90;99.90;;;;;;4343054;33;20060;-95
2020/12/08 06:47:36;;;;;;;2.87;0.98;;;12.80;99.90;;;;;;4354279;33;20064;-94
2020/12/08 06:50:05;;;;;;;0.95;0.80;;;12.80;99.90;;;;;;4344742;33;20067;-94
2020/12/08 06:52:34;;;;;;;1.77;0.70;;;13.00;99.90;;;;;;4331067;33;20055;-91
2020/12/08 06:55:03;;;;;;;5.00;1.10;;;12.90;99.90;;;;;;4335278;33;20076;-94
2020/12/08 06:57:31;;;;;;;1.73;0.77;;;12.90;99.90;;;;;;4334298;33;20075;-91
2020/12/08 07:00:08;;;;;;;2.45;0.88;;;13.00;99.90;;;;;;4334149;33;20777;-92
2020/12/08 07:02:41;;;;;;;2.22;0.70;;;13.10;99.90;;;;;;4341591;33;20469;-93
2020/12/08 07:05:10;;;;;;;3.35;0.80;;;13.20;99.90;;;;;;4351234;32;20443;-93
2020/12/08 07:07:38;;;;;;;2.95;0.50;;;13.00;99.90;;;;;;4340690;33;20098;-92
2020/12/08 07:10:07;;;;;;;3.70;0.77;;;12.80;99.90;;;;;;4330268;33;20036;-91
2020/12/08 07:12:46;;;;;;;5.85;1.35;;;12.70;99.90;;;;;;4355377;32;20095;-93
2020/12/08 07:15:23;;;;;;;0.77;0.60;;;12.70;99.90;;;;;;4343436;33;20067;-93
2020/12/08 07:17:55;;;;;;;1.37;0.60;;;12.60;99.90;;;;;;4323732;32;20461;-92
2020/12/08 07:20:27;;;;;;;4.95;1.17;;;12.60;99.90;;;;;;4349665;32;20099;-91
2020/12/08 07:23:07;;;;;;;1.45;0.73;;;12.50;99.90;;;;;;4342959;32;20082;-92
2020/12/08 07:25:36;;;;;;;1.37;0.50;;;12.50;99.90;;;;;;4332200;32;20052;-92
2020/12/08 07:28:09;;;;;;;1.05;0.80;;;12.50;99.90;;;;;;4353518;32;20082;-92
2020/12/08 07:30:36;;;;;;;0.93;0.50;;;12.50;99.90;;;;;;4330735;33;20469;-92
2020/12/08 07:33:09;;;;;;;4.03;0.77;;;12.50;99.90;;;;;;4349085;33;20158;-91
2020/12/08 07:35:42;;;;;;;10.25;1.75;;;12.50;99.90;;;;;;4332163;33;20067;-93
2020/12/08 07:38:10;;;;;;;4.20;0.60;;;12.50;99.90;;;;;;4327745;32;20095;-91
2020/12/08 07:40:40;;;;;;;1.40;0.57;;;12.30;99.90;;;;;;4333695;32;20404;-92
2020/12/08 07:43:08;;;;;;;3.10;0.88;;;12.20;99.90;;;;;;4342909;33;20079;-92
2020/12/08 07:45:45;;;;;;;4.28;1.00;;;12.30;99.90;;;;;;4329872;33;20119;-91
2020/12/08 07:48:20;;;;;;;2.10;1.08;;;12.20;99.90;;;;;;4341063;33;20098;-93
2020/12/08 07:50:47;;;;;;;3.87;0.82;;;12.30;99.90;;;;;;4342229;32;20082;-92
2020/12/08 07:53:16;;;;;;;4.62;0.70;;;12.40;99.90;;;;;;4341510;32;21022;-92
2020/12/08 07:55:45;;;;;;;2.35;0.68;;;12.50;99.90;;;;;;4344588;33;20078;-91
2020/12/08 07:58:14;;;;;;;1.67;0.93;;;12.50;99.90;;;;;;4350601;32;20063;-92
2020/12/08 08:00:43;;;;;;;7.97;1.50;;;14.90;99.90;;;;;;4334477;32;20088;-93
2020/12/08 08:03:11;;;;;;;3.30;1.00;;;16.30;99.90;;;;;;4331067;33;20105;-93
2020/12/08 08:05:40;;;;;;;3.53;1.10;;;17.40;99.90;;;;;;4321424;33;20064;-93
2020/12/08 08:08:08;;;;;;;2.90;1.15;;;;;;;;;;4345901;33;20063;-93
2020/12/08 08:10:37;;;;;;;6.95;3.28;;;;;;;;;;4333952;32;20083;-93
2020/12/08 08:13:05;;;;;;;5.50;1.98;;;;;;;;;;4335055;32;20043;-93
2020/12/08 08:15:33;;;;;;;3.65;3.35;;;;;;;;;;4343375;33;20098;-93
2020/12/08 08:18:02;;;;;;;2.30;1.77;;;;;;;;;;4344045;33;20390;-93
2020/12/08 08:20:30;;;;;;;2.30;2.20;;;22.50;96.60;;;;;;4334844;33;20065;-95
2020/12/08 08:22:57;;;;;;;2.20;1.95;;;23.10;99.90;;;;;;4346246;32;20078;-95
2020/12/08 08:25:26;;;;;;;2.92;2.70;;;;;;;;;;4344882;32;20082;-94
2020/12/08 08:27:56;;;;;;;3.83;2.00;;;;;;;;;;4330238;32;20464;-94
2020/12/08 08:30:24;;;;;;;6.82;3.00;;;;;;;;;;4351578;32;20261;-93
2020/12/08 08:32:55;;;;;;;3.28;3.08;;;;;;;;;;4343688;32;20114;-94
2020/12/08 08:35:27;;;;;;;2.47;2.28;;;;;;;;;;4341460;33;20071;-94
2020/12/08 08:37:55;;;;;;;6.60;6.20;;;26.80;95.20;;;;;;4355770;32;20171;-94
2020/12/08 08:40:23;;;;;;;4.47;3.37;;;27.20;83.90;;;;;;4346955;32;20098;-92
2020/12/08 08:42:55;;;;;;;3.40;3.10;;;;;;;;;;4355318;32;20063;-92
2020/12/08 08:45:23;;;;;;;5.55;5.03;;;27.70;80.40;;;;;;4355467;32;20956;-92
2020/12/08 08:47:51;;;;;;;14.18;3.37;;;29.40;74.90;;;;;;4343378;32;20154;-93
2020/12/08 08:50:21;;;;;;;6.43;5.05;;;;;;;;;;4344238;32;20091;-92
2020/12/08 08:52:49;;;;;;;5.22;4.82;;;31.30;72.70;;;;;;4359193;32;20094;-93
2020/12/08 08:55:17;;;;;;;4.20;3.90;;;32.00;60.40;;;;;;4341737;32;20070;-92
2020/12/08 08:57:45;;;;;;;3.50;3.30;;;33.20;59.90;;;;;;4356241;32;20446;-93
2020/12/08 09:00:13;;;;;;;6.47;6.07;;;33.20;54.80;;;;;;4355049;32;20099;-93
2020/12/08 09:02:41;;;;;;;5.57;5.22;;;32.80;55.60;;;;;;4329928;32;20090;-95
2020/12/08 09:05:09;;;;;;;6.53;5.72;;;32.70;54.40;;;;;;4334978;32;20153;-95
2020/12/08 09:07:37;;;;;;;1.15;1.05;;;31.10;55.50;;;;;;4333766;33;20130;-91
2020/12/08 09:10:07;;;;;;;5.90;5.47;;;29.70;57.70;;;;;;4351169;32;20115;-92
2020/12/08 09:12:35;;;;;;;6.60;6.28;;;29.80;58.90;;;;;;4355300;32;20059;-92
2020/12/08 09:15:05;;;;;;;0.73;0.30;;;30.40;59.00;;;;;;4356927;32;20740;-93
2020/12/08 09:17:33;;;;;;;3.45;0.62;;;27.50;59.50;;;;;;4346434;32;20463;-91
2020/12/08 09:20:01;;;;;;;2.35;0.60;;;24.90;70.70;;;;;;4355122;32;20879;-92
2020/12/08 09:22:31;;;;;;;0.50;0.50;;;22.20;90.60;;;;;;4353113;32;20094;-91
2020/12/08 09:24:59;;;;;;;1.48;0.60;;;20.70;97.80;;;;;;4329793;33;20358;-91
2020/12/08 09:27:27;;;;;;;1.45;0.60;;;20.10;99.90;;;;;;4355088;32;20083;-90
2020/12/08 09:29:55;;;;;;;1.45;0.30;;;19.60;99.90;;;;;;4352814;32;20925;-90
2020/12/08 09:32:23;;;;;;;0.30;0.30;;;19.40;99.90;;;;;;4327377;32;20100;-90
2020/12/08 09:34:51;;;;;;;3.28;0.60;;;;;;;;;;4345743;32;20608;-91
2020/12/08 09:37:19;;;;;;;3.80;0.50;;;18.60;99.90;;;;;;4346504;32;20483;-91
2020/12/08 09:39:47;;;;;;;1.48;0.43;;;18.20;99.90;;;;;;4334373;32;20064;-92
2020/12/08 09:42:15;;;;;;;6.75;0.80;;;17.90;99.90;;;;;;4346080;32;20059;-91
2020/12/08 09:44:46;;;;;;;4.32;1.10;;;17.70;99.90;;;;;;4346644;32;20094;-90
2020/12/08 09:47:15;;;;;;;4.40;0.50;;;;;;;;;;4351550;32;20060;-91
2020/12/08 09:49:45;;;;;;;0.47;0.45;;;;;;;;;;4346802;32;20116;-89
2020/12/08 09:52:15;;;;;;;0.88;0.55;;;;;;;;;;4351334;32;20085;-90
2020/12/08 09:54:44;;;;;;;0.43;0.43;;;;;;;;;;4351960;32;21025;-91
2020/12/08 09:57:14;;;;;;;1.35;0.60;;;;;;;;;;4356416;32;20773;-91
2020/12/08 09:59:42;;;;;;;0.88;0.68;;;;;;;;;;4335132;32;20113;-89
2020/12/08 10:02:11;;;;;;;1.87;0.60;;;;;;;;;;4326995;32;20094;-89
2020/12/08 10:04:39;;;;;;;0.93;0.90;;;18.80;99.90;;;;;;4344135;33;20071;-89
2020/12/08 10:07:06;;;;;;;0.98;0.85;;;19.30;99.90;;;;;;4355021;32;20056;-91
2020/12/08 10:09:34;;;;;;;3.80;3.60;;;19.80;99.90;;;;;;4355180;32;20137;-91
2020/12/08 10:12:02;;;;;;;0.93;0.90;;;22.00;99.90;;;;;;4342754;32;20140;-92
2020/12/08 10:14:31;;;;;;;0.68;0.68;;;21.50;97.10;;;;;;4343329;33;20070;-90
2020/12/08 10:16:59;;;;;;;0.70;0.70;;;21.20;97.90;;;;;;4344133;32;20105;-90
2020/12/08 10:19:27;;;;;;;4.12;0.90;;;21.00;99.80;;;;;;4341577;33;20502;-91
2020/12/08 10:21:59;;;;;;;11.07;10.57;;;20.70;99.70;;;;;;4327868;32;20130;-92
2020/12/08 10:24:27;;;;;;;9.30;8.90;;;24.20;96.50;;;;;;4347561;32;20074;-95
2020/12/08 10:26:55;;;;;;;7.87;7.37;;;26.60;90.80;;;;;;4328172;32;20496;-95
2020/12/08 10:29:23;;;;;;;13.43;12.75;;;28.40;85.60;;;;;;4331986;32;21197;-96
2020/12/08 10:31:52;;;;;;;1.85;1.75;;;28.50;81.70;;;;;;4329580;32;20130;-95
2020/12/08 10:34:20;;;;;;;5.10;0.57;;;28.30;82.30;;;;;;4350853;33;20064;-95
2020/12/08 10:36:48;;;;;;;1.27;0.45;;;;;;;;;;4343777;33;20473;-95
2020/12/08 10:39:18;;;;;;;1.92;0.73;;;;;;;;;;4342953;33;20060;-95
2020/12/08 10:41:46;;;;;;;1.33;0.80;;;21.20;96.60;;;;;;4339774;32;21072;-94
2020/12/08 10:44:16;;;;;;;30.95;29.42;;;22.50;95.20;;;;;;4351801;32;20110;-95
2020/12/08 10:46:44;;;;;;;25.02;23.92;;;25.40;90.20;;;;;;4350956;32;20089;-96
2020/12/08 10:49:12;;;;;;;9.45;9.05;;;26.50;82.10;;;;;;4352914;32;20051;-95
2020/12/08 10:51:41;;;;;;;12.98;12.37;;;25.60;85.20;;;;;;4329773;32;20083;-95
2020/12/08 10:54:10;;;;;;;10.77;10.23;;;26.40;83.50;;;;;;4328036;33;20072;-96
2020/12/08 10:56:38;;;;;;;12.65;12.15;;;27.80;90.70;;;;;;4335062;33;20116;-96
2020/12/08 10:59:06;;;;;;;16.12;15.40;;;27.70;77.60;;;;;;4331505;33;20076;-95
2020/12/08 11:01:39;;;;;;;9.30;8.43;;;28.20;79.30;;;;;;4332208;33;20078;-94
2020/12/08 11:04:08;;;;;;;4.70;4.50;;;28.40;78.10;;;;;;4329472;33;20123;-96
2020/12/08 11:06:36;;;;;;;6.65;6.35;;;29.70;74.00;;;;;;4339933;33;20484;-96
2020/12/08 11:09:05;;;;;;;1.55;0.80;;;29.60;71.90;;;;;;4330839;32;20078;-96
2020/12/08 11:11:33;;;;;;;10.98;10.50;;;29.10;72.60;;;;;;4343243;33;20102;-96
2020/12/08 11:14:01;;;;;;;0.98;0.70;;;27.60;75.20;;;;;;4346630;32;20083;-95
2020/12/08 11:16:31;;;;;;;1.40;0.70;;;25.80;79.40;;;;;;4329102;33;20106;-94
2020/12/08 11:18:59;;;;;;;16.08;15.38;;;23.90;87.50;;;;;;4329820;33;20093;-94
2020/12/08 11:21:29;;;;;;;1.75;0.60;;;25.70;83.50;;;;;;4331085;32;21907;-95
2020/12/08 11:23:57;;;;;;;1.17;0.70;;;24.70;82.80;;;;;;4334672;32;20980;-94
2020/12/08 11:26:28;;;;;;;1.08;0.50;;;23.80;87.90;;;;;;4336862;33;20060;-94
2020/12/08 11:28:57;;;;;;;5.22;4.78;;;;;;;;;;4358782;32;20684;-95
2020/12/08 11:31:26;;;;;;;3.90;3.70;;;24.00;90.00;;;;;;4354938;32;20079;-95
2020/12/08 11:33:55;;;;;;;0.85;0.50;;;25.20;84.80;;;;;;4347743;32;20101;-96
2020/12/08 11:36:23;;;;;;;5.78;5.47;;;23.60;87.20;;;;;;4349719;32;20094;-94
2020/12/08 11:38:51;;;;;;;3.75;3.55;;;24.40;86.80;;;;;;4328806;33;20118;-95
2020/12/08 11:41:22;;;;;;;3.28;3.08;;;26.70;77.90;;;;;;4357195;32;20052;-94
2020/12/08 11:43:50;;;;;;;2.53;2.42;;;26.90;76.20;;;;;;4356420;32;20059;-94
2020/12/08 11:46:18;;;;;;;2.42;2.25;;;27.40;70.50;;;;;;4332170;33;20068;-93
2020/12/08 11:48:46;;;;;;;3.80;3.50;;;28.30;69.70;;;;;;4343775;32;20099;-92
2020/12/08 11:51:15;;;;;;;2.65;2.45;;;27.80;67.40;;;;;;4348545;32;20060;-93
2020/12/08 11:53:43;;;;;;;2.15;2.05;;;27.60;70.00;;;;;;4345014;33;20098;-92
2020/12/08 11:56:11;;;;;;;5.07;4.87;;;27.20;70.50;;;;;;4345316;32;20847;-92
2020/12/08 11:58:40;;;;;;;2.80;2.70;;;27.10;72.00;;;;;;4332574;33;20067;-92
2020/12/08 12:01:08;;;;;;;2.50;2.40;;;27.10;68.30;;;;;;4346850;33;20055;-93
2020/12/08 12:03:37;;;;;;;3.67;3.47;;;27.00;67.50;;;;;;4359522;32;20543;-94
2020/12/08 12:06:05;;;;;;;2.20;2.10;;;26.40;68.80;;;;;;4358151;32;20069;-92
2020/12/08 12:08:33;;;;;;;2.45;2.35;;;26.80;68.40;;;;;;4346474;32;20444;-92
2020/12/08 12:11:02;;;;;;;2.75;2.65;;;27.10;67.50;;;;;;4332239;32;20815;-93
2020/12/08 12:13:30;;;;;;;2.70;2.60;;;27.30;69.30;;;;;;4346832;32;20166;-92
2020/12/08 12:15:57;;;;;;;3.45;3.25;;;28.10;68.40;;;;;;4340936;32;20075;-93
2020/12/08 12:18:26;;;;;;;2.12;2.03;;;26.80;67.40;;;;;;4360437;32;20769;-93
2020/12/08 12:20:53;;;;;;;2.08;1.98;;;26.70;69.70;;;;;;4331385;32;20051;-92
2020/12/08 12:23:21;;;;;;;12.57;2.15;;;26.50;69.70;;;;;;4345120;32;20097;-92
2020/12/08 12:25:50;;;;;;;2.10;1.90;;;27.70;68.30;;;;;;4356134;32;20059;-91
2020/12/08 12:28:17;;;;;;;1.23;1.12;;;28.30;66.80;;;;;;4343514;33;20109;-95
2020/12/08 12:30:45;;;;;;;0.90;0.90;;;26.60;68.50;;;;;;4344720;32;20102;-92
2020/12/08 12:33:37;;;;;;;2.22;0.70;;;25.40;71.50;;;;;;4352316;32;20073;-96
2020/12/08 12:36:25;;;;;;;1.20;1.10;;;24.80;74.40;;;;;;4351491;32;20123;-96
2020/12/08 12:39:00;;;;;;;1.10;1.10;;;24.20;75.60;;;;;;4350610;32;20355;-96
2020/12/08 12:41:30;;;;;;;0.60;0.60;;;24.10;76.60;;;;;;4347696;32;20089;-96
2020/12/08 12:44:00;;;;;;;1.80;0.80;;;24.20;75.00;;;;;;4348074;32;20101;-95
2020/12/08 12:46:29;;;;;;;1.20;0.70;;;24.10;78.50;;;;;;4346242;32;20078;-94
2020/12/08 12:48:58;;;;;;;1.05;0.75;;;24.30;77.00;;;;;;4347818;32;21761;-95
2020/12/08 12:51:28;;;;;;;3.45;0.70;;;24.30;76.50;;;;;;4330675;32;20125;-94
2020/12/08 12:53:56;;;;;;;2.87;0.77;;;23.60;77.70;;;;;;4359482;32;20055;-95
2020/12/08 12:56:27;;;;;;;1.40;0.77;;;23.90;78.30;;;;;;4356884;32;20111;-96
2020/12/08 12:58:57;;;;;;;3.83;1.00;;;23.90;77.60;;;;;;4351166;32;20051;-96
2020/12/08 13:01:25;;;;;;;0.75;0.60;;;23.10;76.60;;;;;;4336860;32;20043;-95
2020/12/08 13:03:53;;;;;;;1.42;0.75;;;23.50;78.80;;;;;;4361598;32;20106;-95
2020/12/08 13:06:22;;;;;;;1.30;0.62;;;23.10;80.30;;;;;;4360564;32;20109;-92
2020/12/08 13:08:50;;;;;;;0.82;0.80;;;22.90;80.00;;;;;;4343384;32;20059;-93